createdAt,value
2023-05-03T00:00:32.463Z,4.77
2023-05-03T00:02:40.240Z,4.67
2023-05-03T00:04:46.629Z,4.10
2023-05-03T00:06:50.136Z,4.50
2023-05-03T00:08:52.375Z,4.40
2023-05-03T00:10:59.944Z,4.10
2023-05-03T00:13:01.971Z,4.50
2023-05-03T00:15:04.584Z,4.27
2023-05-03T00:17:06.820Z,4.37
2023-05-03T00:19:17.661Z,5.50
2023-05-03T00:21:27.152Z,5.00
2023-05-03T00:23:29.433Z,4.17
2023-05-03T00:25:32.333Z,4.13
2023-05-03T00:27:34.352Z,4.27
2023-05-03T00:29:36.396Z,4.70
2023-05-03T00:31:38.652Z,4.73
2023-05-03T00:33:41.317Z,4.60
2023-05-03T00:35:44.713Z,5.10
2023-05-03T00:37:46.999Z,4.60
2023-05-03T00:39:49.125Z,4.60
2023-05-03T00:41:56.921Z,4.10
2023-05-03T00:43:58.970Z,4.03
2023-05-03T00:46:13.017Z,4.30
2023-05-03T00:48:18.980Z,4.10
2023-05-03T00:50:21.673Z,5.00
2023-05-03T00:52:24.275Z,4.60
2023-05-03T00:54:29.912Z,4.43
2023-05-03T00:56:40.948Z,4.17
2023-05-03T00:58:53.520Z,5.03
2023-05-03T01:00:55.885Z,4.27
2023-05-03T01:02:58.042Z,4.10
2023-05-03T01:05:00.290Z,4.00
2023-05-03T01:07:28.610Z,4.07
2023-05-03T01:09:49.475Z,4.37
2023-05-03T01:11:51.579Z,4.20
2023-05-03T01:13:58.810Z,4.97
2023-05-03T01:16:05.969Z,3.87
2023-05-03T01:18:12.723Z,4.43
2023-05-03T01:20:16.577Z,4.57
2023-05-03T01:22:39.138Z,4.43
2023-05-03T01:24:42.514Z,4.87
2023-05-03T01:26:44.505Z,5.20
2023-05-03T01:28:46.895Z,4.90
2023-05-03T01:30:50.520Z,4.93
2023-05-03T01:33:19.859Z,4.63
2023-05-03T01:35:36.251Z,5.07
2023-05-03T01:37:38.288Z,4.70
2023-05-03T01:39:44.897Z,4.80
2023-05-03T01:41:50.302Z,5.00
2023-05-03T01:43:55.683Z,5.20
2023-05-03T01:45:58.440Z,5.47
2023-05-03T01:48:00.603Z,5.77
2023-05-03T01:50:02.873Z,4.60
2023-05-03T01:52:05.336Z,5.13
2023-05-03T01:54:07.524Z,4.43
2023-05-03T01:56:10.922Z,4.73
2023-05-03T01:58:13.178Z,4.60
2023-05-03T02:00:15.520Z,4.40
2023-05-03T02:02:17.422Z,5.77
2023-05-03T02:04:19.494Z,4.33
2023-05-03T02:06:21.609Z,4.70
2023-05-03T02:08:23.825Z,5.20
2023-05-03T02:10:26.448Z,4.40
2023-05-03T02:12:30.902Z,5.00
2023-05-03T02:14:33.102Z,4.83
2023-05-03T02:16:35.174Z,5.17
2023-05-03T02:18:37.471Z,4.37
2023-05-03T02:20:39.638Z,4.30
2023-05-03T02:22:42.427Z,4.53
2023-05-03T02:24:44.452Z,4.40
2023-05-03T02:26:46.487Z,4.50
2023-05-03T02:28:48.612Z,4.50
2023-05-03T02:30:50.703Z,4.90
2023-05-03T02:32:52.796Z,4.70
2023-05-03T02:34:55.922Z,4.47
2023-05-03T02:36:59.605Z,4.83
2023-05-03T02:39:01.603Z,5.13
2023-05-03T02:41:03.979Z,5.13
2023-05-03T02:43:06.510Z,4.60
2023-05-03T02:45:08.948Z,4.13
2023-05-03T02:47:11.171Z,4.40
2023-05-03T02:49:15.838Z,4.70
2023-05-03T02:51:19.493Z,5.10
2023-05-03T02:53:21.904Z,4.07
2023-05-03T02:55:25.170Z,4.13
2023-05-03T02:57:27.456Z,4.80
2023-05-03T02:59:32.868Z,4.77
2023-05-03T03:01:36.036Z,4.60
2023-05-03T03:03:38.678Z,4.80
2023-05-03T03:05:40.812Z,4.63
2023-05-03T03:07:43.392Z,4.50
2023-05-03T03:09:45.465Z,4.73
2023-05-03T03:11:47.604Z,4.40
2023-05-03T03:13:52.049Z,4.73
2023-05-03T03:15:55.996Z,4.63
2023-05-03T03:17:58.373Z,4.80
2023-05-03T03:20:06.124Z,4.80
2023-05-03T03:22:08.108Z,5.33
2023-05-03T03:24:10.314Z,4.90
2023-05-03T03:26:12.854Z,5.20
2023-05-03T03:28:14.919Z,4.40
2023-05-03T03:30:17.014Z,5.27
2023-05-03T03:32:30.313Z,4.97
2023-05-03T03:34:33.259Z,4.83
2023-05-03T03:36:38.008Z,4.73
2023-05-03T03:38:41.240Z,4.73
2023-05-03T03:40:45.744Z,4.80
2023-05-03T03:42:47.755Z,4.93
2023-05-03T03:44:49.981Z,4.63
2023-05-03T03:46:52.087Z,4.50
2023-05-03T03:48:54.518Z,4.83
2023-05-03T03:50:58.150Z,4.90
2023-05-03T03:53:09.288Z,4.73
2023-05-03T03:55:12.847Z,4.93
2023-05-03T03:57:15.609Z,5.40
2023-05-03T03:59:18.262Z,4.80
2023-05-03T04:01:21.376Z,5.00
2023-05-03T04:03:23.560Z,4.80
2023-05-03T04:05:25.780Z,5.10
2023-05-03T04:07:28.488Z,5.03
2023-05-03T04:09:30.545Z,5.60
2023-05-03T04:11:32.915Z,5.43
2023-05-03T04:13:36.104Z,4.90
2023-05-03T04:15:38.124Z,4.80
2023-05-03T04:17:41.031Z,5.00
2023-05-03T04:19:45.205Z,5.37
2023-05-03T04:21:48.252Z,5.33
2023-05-03T04:23:50.945Z,4.80
2023-05-03T04:25:57.153Z,4.80
2023-05-03T04:28:00.953Z,4.67
2023-05-03T04:30:05.181Z,5.43
2023-05-03T04:32:08.393Z,4.93
2023-05-03T04:34:15.001Z,5.43
2023-05-03T04:36:19.642Z,5.60
2023-05-03T04:38:23.773Z,4.90
2023-05-03T04:40:25.994Z,5.00
2023-05-03T04:42:36.444Z,5.23
2023-05-03T04:44:38.779Z,4.87
2023-05-03T04:46:41.399Z,4.30
2023-05-03T04:48:43.632Z,5.10
2023-05-03T04:50:46.189Z,5.03
2023-05-03T04:52:50.276Z,4.83
2023-05-03T04:54:53.348Z,4.43
2023-05-03T04:56:56.787Z,4.70
2023-05-03T04:58:59.070Z,5.30
2023-05-03T05:01:01.279Z,5.17
2023-05-03T05:03:06.367Z,6.30
2023-05-03T05:05:10.624Z,5.60
2023-05-03T05:07:13.543Z,6.40
2023-05-03T05:09:28.524Z,6.20
2023-05-03T05:11:34.058Z,6.63
2023-05-03T05:13:36.727Z,4.80
2023-05-03T05:15:38.806Z,4.90
2023-05-03T05:17:41.359Z,4.40
2023-05-03T05:19:45.882Z,4.37
2023-05-03T05:21:48.251Z,4.27
2023-05-03T05:23:51.278Z,4.57
2023-05-03T05:25:54.128Z,4.33
2023-05-03T05:27:56.672Z,4.83
2023-05-03T05:29:59.184Z,4.83
2023-05-03T05:32:03.584Z,4.73
2023-05-03T05:34:06.462Z,4.70
2023-05-03T05:36:08.826Z,5.47
2023-05-03T05:38:10.996Z,5.20
2023-05-03T05:40:13.321Z,4.57
2023-05-03T05:42:21.007Z,4.60
2023-05-03T05:44:23.127Z,4.00
2023-05-03T05:46:25.323Z,4.40
2023-05-03T05:48:29.255Z,4.73
2023-05-03T05:50:31.748Z,4.30
2023-05-03T05:52:38.045Z,4.67
2023-05-03T05:54:41.044Z,4.27
2023-05-03T05:56:43.245Z,4.20
2023-05-03T05:58:45.699Z,4.10
2023-05-03T06:00:49.106Z,3.30
2023-05-03T06:02:52.596Z,3.43
2023-05-03T06:04:56.906Z,4.10
2023-05-03T06:06:59.072Z,3.80
2023-05-03T06:09:09.797Z,3.50
2023-05-03T06:11:19.328Z,3.43
2023-05-03T06:13:22.691Z,2.90
2023-05-03T06:15:26.297Z,3.07
2023-05-03T06:17:28.639Z,3.67
2023-05-03T06:19:32.283Z,3.00
2023-05-03T06:21:34.581Z,2.73
2023-05-03T06:23:39.715Z,3.30
2023-05-03T06:25:46.251Z,3.40
2023-05-03T06:27:48.904Z,2.90
2023-05-03T06:29:52.988Z,2.93
2023-05-03T06:31:55.535Z,3.10
2023-05-03T06:33:57.900Z,2.80
2023-05-03T06:36:00.634Z,2.80
2023-05-03T06:38:02.816Z,2.50
2023-05-03T06:40:06.835Z,2.80
2023-05-03T06:42:08.994Z,2.67
2023-05-03T06:44:14.839Z,3.07
2023-05-03T06:46:19.588Z,3.30
2023-05-03T06:48:22.575Z,3.37
2023-05-03T06:50:24.930Z,3.00
2023-05-03T06:52:27.077Z,3.03
2023-05-03T06:54:29.211Z,2.90
2023-05-03T06:56:31.621Z,3.23
2023-05-03T06:58:33.629Z,3.00
2023-05-03T07:00:35.998Z,2.80
2023-05-03T07:02:38.112Z,3.23
2023-05-03T07:04:40.235Z,2.53
2023-05-03T07:06:55.413Z,2.37
2023-05-03T07:08:58.605Z,2.37
2023-05-03T07:11:00.698Z,2.30
2023-05-03T07:13:02.861Z,2.47
2023-05-03T07:15:05.215Z,2.80
2023-05-03T07:17:07.491Z,2.80
2023-05-03T07:19:09.458Z,2.40
2023-05-03T07:21:11.524Z,2.80
2023-05-03T07:23:13.539Z,2.60
2023-05-03T07:25:17.827Z,2.50
2023-05-03T07:27:21.107Z,2.47
2023-05-03T07:29:23.166Z,2.23
2023-05-03T07:31:25.764Z,2.40
2023-05-03T07:33:27.998Z,2.53
2023-05-03T07:35:30.639Z,1.70
2023-05-03T07:37:32.700Z,2.13
2023-05-03T07:39:34.764Z,2.13
2023-05-03T07:41:37.076Z,2.30
2023-05-03T07:43:39.171Z,2.30
2023-05-03T07:45:41.314Z,1.90
2023-05-03T07:47:43.371Z,2.10
2023-05-03T07:49:45.668Z,2.20
2023-05-03T07:51:47.756Z,2.00
2023-05-03T07:53:49.822Z,2.00
2023-05-03T07:55:55.263Z,2.10
2023-05-03T07:57:59.423Z,2.30
2023-05-03T08:00:01.845Z,2.20
2023-05-03T08:02:14.940Z,2.30
2023-05-03T08:04:17.110Z,2.40
2023-05-03T08:06:19.539Z,2.97
2023-05-03T08:08:21.745Z,2.20
2023-05-03T08:10:23.860Z,2.13
2023-05-03T08:12:26.245Z,2.40
2023-05-03T08:14:28.274Z,2.37
2023-05-03T08:16:31.037Z,2.60
2023-05-03T08:18:33.351Z,2.43
2023-05-03T08:20:36.999Z,2.53
2023-05-03T08:22:40.502Z,2.60
2023-05-03T08:24:43.412Z,2.07
2023-05-03T08:26:46.221Z,2.40
2023-05-03T08:28:48.273Z,2.67
2023-05-03T08:30:52.497Z,2.10
2023-05-03T08:32:54.892Z,2.73
2023-05-03T08:34:57.135Z,2.27
2023-05-03T08:36:59.580Z,2.37
2023-05-03T08:39:03.816Z,2.50
2023-05-03T08:41:23.663Z,2.83
2023-05-03T08:43:27.717Z,2.27
2023-05-03T08:45:33.212Z,2.37
2023-05-03T08:47:38.481Z,1.80
2023-05-03T08:49:42.322Z,2.40
2023-05-03T08:51:47.384Z,2.30
2023-05-03T08:53:50.476Z,2.20
2023-05-03T08:55:52.547Z,2.30
2023-05-03T08:57:54.588Z,2.30
2023-05-03T09:00:01.870Z,2.30
2023-05-03T09:02:05.033Z,2.93
2023-05-03T09:04:08.126Z,2.40
2023-05-03T09:06:22.974Z,2.80
2023-05-03T09:08:25.018Z,2.57
2023-05-03T09:10:27.085Z,2.33
2023-05-03T09:12:41.165Z,7.10
2023-05-03T09:14:44.844Z,1.90
2023-05-03T09:16:47.290Z,2.10
2023-05-03T09:19:01.182Z,2.37
2023-05-03T09:21:03.450Z,1.70
2023-05-03T09:23:07.113Z,2.50
2023-05-03T09:25:09.493Z,2.20
2023-05-03T09:27:21.685Z,2.10
2023-05-03T09:29:35.987Z,1.80
2023-05-03T09:31:59.327Z,1.93
2023-05-03T09:34:01.927Z,2.50
2023-05-03T09:36:05.478Z,2.30
2023-05-03T09:38:07.776Z,2.00
2023-05-03T09:40:11.712Z,2.07
2023-05-03T09:42:18.646Z,2.60
2023-05-03T09:44:20.878Z,1.80
2023-05-03T09:46:27.482Z,2.00
2023-05-03T09:48:29.695Z,1.87
2023-05-03T09:50:33.563Z,2.23
2023-05-03T09:52:38.164Z,1.90
2023-05-03T09:54:40.824Z,2.23
2023-05-03T09:56:44.810Z,2.70
2023-05-03T09:58:47.252Z,2.17
2023-05-03T10:00:52.504Z,2.23
2023-05-03T10:02:55.508Z,2.10
2023-05-03T10:04:59.612Z,2.97
2023-05-03T10:07:04.701Z,2.37
2023-05-03T10:09:20.858Z,2.57
2023-05-03T10:11:24.753Z,2.47
2023-05-03T10:13:27.522Z,2.20
2023-05-03T10:15:30.001Z,3.13
2023-05-03T10:17:47.848Z,3.00
2023-05-03T10:19:56.940Z,1.80
2023-05-03T10:22:07.720Z,2.30
2023-05-03T10:24:14.241Z,2.37
2023-05-03T10:26:16.758Z,2.30
2023-05-03T10:28:19.463Z,2.20
2023-05-03T10:30:29.329Z,2.30
2023-05-03T10:32:43.319Z,2.40
2023-05-03T10:34:46.449Z,2.43
2023-05-03T10:36:53.370Z,2.47
2023-05-03T10:38:57.140Z,2.20
2023-05-03T10:41:01.493Z,2.17
2023-05-03T10:43:03.658Z,2.60
2023-05-03T10:45:09.024Z,2.20
2023-05-03T10:47:15.738Z,2.57
2023-05-03T10:49:19.897Z,2.27
2023-05-03T10:51:33.074Z,2.03
2023-05-03T10:53:37.133Z,2.67
2023-05-03T10:55:39.533Z,2.20
2023-05-03T10:57:44.491Z,3.13
2023-05-03T10:59:47.951Z,2.40
2023-05-03T11:01:53.888Z,2.57
2023-05-03T11:04:04.990Z,2.50
2023-05-03T11:06:07.477Z,2.40
2023-05-03T11:08:18.810Z,2.53
2023-05-03T11:10:21.390Z,2.80
2023-05-03T11:12:23.642Z,2.60
2023-05-03T11:14:26.005Z,2.40
2023-05-03T11:16:28.838Z,2.80
2023-05-03T11:18:32.148Z,2.37
2023-05-03T11:20:35.605Z,2.30
2023-05-03T11:22:38.000Z,2.33
2023-05-03T11:24:40.169Z,2.83
2023-05-03T11:26:42.412Z,3.00
2023-05-03T11:28:45.234Z,2.73
2023-05-03T11:30:47.502Z,2.50
2023-05-03T11:32:49.953Z,2.40
2023-05-03T11:34:52.313Z,2.43
2023-05-03T11:36:55.758Z,2.77
2023-05-03T11:38:57.928Z,2.30
2023-05-03T11:41:01.095Z,2.80
2023-05-03T11:43:04.039Z,2.17
2023-05-03T11:45:07.560Z,2.73
2023-05-03T11:47:10.320Z,2.80
2023-05-03T11:49:18.089Z,2.30
2023-05-03T11:51:24.215Z,2.10
2023-05-03T11:53:27.086Z,2.43
2023-05-03T11:55:30.610Z,2.63
2023-05-03T11:57:32.871Z,2.20
2023-05-03T11:59:41.943Z,2.53
2023-05-03T12:01:44.372Z,2.60
2023-05-03T12:03:49.535Z,2.13
2023-05-03T12:05:56.298Z,2.43
2023-05-03T12:07:59.547Z,2.53
2023-05-03T12:10:22.690Z,2.97
2023-05-03T12:12:32.439Z,2.27
2023-05-03T12:14:58.017Z,2.23
2023-05-03T12:17:01.150Z,2.70
2023-05-03T12:19:03.985Z,2.50
2023-05-03T12:21:30.950Z,2.20
2023-05-03T12:25:39.315Z,2.53
2023-05-03T12:27:44.234Z,2.40
2023-05-03T12:29:47.940Z,2.63
2023-05-03T12:31:50.426Z,2.20
2023-05-03T12:35:59.380Z,2.60
2023-05-03T12:38:04.321Z,2.27
2023-05-03T12:40:31.499Z,2.47
2023-05-03T12:42:31.637Z,2.83
2023-05-03T12:44:36.151Z,2.27
2023-05-03T12:46:39.086Z,2.77
2023-05-03T12:48:45.925Z,2.70
2023-05-03T12:50:51.837Z,2.93
2023-05-03T12:52:54.522Z,2.57
2023-05-03T12:54:57.039Z,2.40
2023-05-03T12:57:07.886Z,2.23
2023-05-03T12:59:31.856Z,2.70
2023-05-03T13:03:44.389Z,2.30
2023-05-03T13:05:49.763Z,2.07
2023-05-03T13:07:56.436Z,2.30
2023-05-03T13:12:05.201Z,2.27
2023-05-03T13:14:07.624Z,1.93
2023-05-03T13:16:09.836Z,1.87
2023-05-03T13:18:14.364Z,2.40
2023-05-03T13:20:16.714Z,2.73
2023-05-03T13:22:19.333Z,3.00
2023-05-03T13:24:21.648Z,2.23
2023-05-03T13:26:23.913Z,2.40
2023-05-03T13:28:29.813Z,2.27
2023-05-03T13:30:33.116Z,2.97
2023-05-03T13:32:35.608Z,2.70
2023-05-03T13:34:37.975Z,2.50
2023-05-03T13:36:40.495Z,2.70
2023-05-03T13:38:42.989Z,2.67
2023-05-03T13:40:45.664Z,2.53
2023-05-03T13:42:48.932Z,2.53
2023-05-03T13:44:51.397Z,2.50
2023-05-03T13:46:53.917Z,2.87
2023-05-03T13:48:56.651Z,2.40
2023-05-03T13:50:59.384Z,2.53
2023-05-03T13:53:01.976Z,2.63
2023-05-03T13:55:05.023Z,2.13
2023-05-03T13:57:07.350Z,2.17
2023-05-03T13:59:12.505Z,2.30
2023-05-03T14:01:15.529Z,2.70
2023-05-03T14:03:18.110Z,2.20
2023-05-03T14:05:20.921Z,2.57
2023-05-03T14:07:23.145Z,2.87
2023-05-03T14:09:25.563Z,2.83
2023-05-03T14:11:28.668Z,2.40
2023-05-03T14:13:40.500Z,2.27
2023-05-03T14:15:50.179Z,2.50
2023-05-03T14:17:52.950Z,3.00
2023-05-03T14:19:58.412Z,3.33
2023-05-03T14:22:01.153Z,2.13
2023-05-03T14:24:03.610Z,2.37
2023-05-03T14:26:08.910Z,2.23
2023-05-03T14:28:11.196Z,2.43
2023-05-03T14:30:13.947Z,2.30
2023-05-03T14:32:16.249Z,2.27
2023-05-03T14:34:18.429Z,2.30
2023-05-03T14:36:20.732Z,2.07
2023-05-03T14:38:22.905Z,2.60
2023-05-03T14:40:25.194Z,1.90
2023-05-03T14:42:30.536Z,2.40
2023-05-03T14:44:32.788Z,2.03
2023-05-03T14:46:35.226Z,2.43
2023-05-03T14:48:38.266Z,2.40
2023-05-03T14:50:40.624Z,2.20
2023-05-03T14:52:42.799Z,1.83
2023-05-03T14:54:44.972Z,2.03
2023-05-03T14:56:47.971Z,2.70
2023-05-03T14:58:50.518Z,2.17
2023-05-03T15:00:52.789Z,2.17
2023-05-03T15:02:58.144Z,2.60
2023-05-03T15:05:01.694Z,2.47
2023-05-03T15:07:05.358Z,2.57
2023-05-03T15:09:09.572Z,2.40
2023-05-03T15:11:15.220Z,2.30
2023-05-03T15:13:18.812Z,2.07
2023-05-03T15:15:21.987Z,2.23
2023-05-03T15:17:25.040Z,2.03
2023-05-03T15:19:28.224Z,1.70
2023-05-03T15:21:30.714Z,2.20
2023-05-03T15:23:33.058Z,2.07
2023-05-03T15:25:35.685Z,2.10
2023-05-03T15:27:38.019Z,2.07
2023-05-03T15:29:40.741Z,2.10
2023-05-03T15:31:43.820Z,1.70
2023-05-03T15:33:46.234Z,2.00
2023-05-03T15:35:48.596Z,2.23
2023-05-03T15:37:50.904Z,2.20
2023-05-03T15:39:53.083Z,2.60
2023-05-03T15:41:55.306Z,2.47
2023-05-03T15:43:57.756Z,2.23
2023-05-03T15:46:01.677Z,1.90
2023-05-03T15:48:04.719Z,2.30
2023-05-03T15:50:08.411Z,2.30
2023-05-03T15:52:12.506Z,1.93
2023-05-03T15:54:14.724Z,2.37
2023-05-03T15:56:16.998Z,2.23
2023-05-03T15:58:19.250Z,8.83
2023-05-03T16:00:21.743Z,1.93
2023-05-03T16:02:24.030Z,2.10
2023-05-03T16:04:26.316Z,2.30
2023-05-03T16:06:28.628Z,1.90
2023-05-03T16:08:30.945Z,2.00
2023-05-03T16:10:34.496Z,2.00
2023-05-03T16:12:37.225Z,2.40
2023-05-03T16:14:39.947Z,2.27
2023-05-03T16:16:42.420Z,2.30
2023-05-03T16:18:44.664Z,1.80
2023-05-03T16:20:46.978Z,2.00
2023-05-03T16:22:51.396Z,2.03
2023-05-03T16:24:54.969Z,2.43
2023-05-03T16:26:57.170Z,2.50
2023-05-03T16:28:59.338Z,1.97
2023-05-03T16:31:01.521Z,2.50
2023-05-03T16:33:04.712Z,2.17
2023-05-03T16:35:07.335Z,2.20
2023-05-03T16:37:09.589Z,2.97
2023-05-03T16:39:12.793Z,2.33
2023-05-03T16:41:15.337Z,2.37
2023-05-03T16:43:18.481Z,2.20
2023-05-03T16:45:20.736Z,2.47
2023-05-03T16:47:23.449Z,1.90
2023-05-03T16:49:25.730Z,2.13
2023-05-03T16:51:28.110Z,1.97
2023-05-03T16:53:31.381Z,2.33
2023-05-03T16:55:33.634Z,2.17
2023-05-03T16:57:39.863Z,2.20
2023-05-03T16:59:42.177Z,2.37
2023-05-03T17:01:44.557Z,2.20
2023-05-03T17:03:46.974Z,2.80
2023-05-03T17:05:49.658Z,2.40
2023-05-03T17:07:51.980Z,1.90
2023-05-03T17:09:54.195Z,2.03
2023-05-03T17:11:56.443Z,1.90
2023-05-03T17:14:00.803Z,2.10
2023-05-03T17:16:11.362Z,2.73
2023-05-03T17:18:13.684Z,1.87
2023-05-03T17:20:16.569Z,2.13
2023-05-03T17:22:18.961Z,2.20
2023-05-03T17:24:21.491Z,1.90
2023-05-03T17:26:23.976Z,2.37
2023-05-03T17:28:27.117Z,1.90
2023-05-03T17:30:30.518Z,1.93
2023-05-03T17:32:33.066Z,2.13
2023-05-03T17:34:36.246Z,2.10
2023-05-03T17:36:38.498Z,2.17
2023-05-03T17:38:40.772Z,1.83
2023-05-03T17:40:44.499Z,2.63
2023-05-03T17:42:47.154Z,2.43
2023-05-03T17:44:52.234Z,2.47
2023-05-03T17:46:54.668Z,2.20
2023-05-03T17:48:57.917Z,2.10
2023-05-03T17:51:00.277Z,2.37
2023-05-03T17:53:02.703Z,1.83
2023-05-03T17:55:05.402Z,2.03
2023-05-03T17:57:07.672Z,2.27
2023-05-03T17:59:09.852Z,2.50
2023-05-03T18:01:13.748Z,2.40
2023-05-03T18:03:17.087Z,2.60
2023-05-03T18:05:19.616Z,2.30
2023-05-03T18:07:21.824Z,2.07
2023-05-03T18:09:26.577Z,3.10
2023-05-03T18:11:29.430Z,2.50
2023-05-03T18:13:33.417Z,4.63
2023-05-03T18:15:36.895Z,4.00
2023-05-03T18:17:39.210Z,3.67
2023-05-03T18:19:44.263Z,2.63
2023-05-03T18:21:46.645Z,2.77
2023-05-03T18:23:48.895Z,3.10
2023-05-03T18:25:52.470Z,3.30
2023-05-03T18:27:54.751Z,2.90
2023-05-03T18:29:56.971Z,2.97
2023-05-03T18:31:59.826Z,4.50
2023-05-03T18:34:02.145Z,2.70
2023-05-03T18:36:08.916Z,3.27
2023-05-03T18:38:11.162Z,3.40
2023-05-03T18:40:13.586Z,3.33
2023-05-03T18:42:17.251Z,3.37
2023-05-03T18:44:22.304Z,4.00
2023-05-03T18:46:24.625Z,4.43
2023-05-03T18:48:26.948Z,3.90
2023-05-03T18:50:29.206Z,3.53
2023-05-03T18:52:31.545Z,3.80
2023-05-03T18:54:33.782Z,4.10
2023-05-03T18:56:36.132Z,3.53
2023-05-03T18:58:38.448Z,3.67
2023-05-03T19:00:41.073Z,3.80
2023-05-03T19:02:43.318Z,3.27
2023-05-03T19:04:45.583Z,3.70
2023-05-03T19:06:47.870Z,3.83
2023-05-03T19:08:50.119Z,4.03
2023-05-03T19:10:52.287Z,3.40
2023-05-03T19:12:54.619Z,3.67
2023-05-03T19:14:56.813Z,3.23
2023-05-03T19:16:59.449Z,3.23
2023-05-03T19:19:02.264Z,3.63
2023-05-03T19:21:04.994Z,3.67
2023-05-03T19:23:07.226Z,4.10
2023-05-03T19:25:09.802Z,3.70
2023-05-03T19:27:12.116Z,3.03
2023-05-03T19:29:14.348Z,3.77
2023-05-03T19:31:17.783Z,4.33
2023-05-03T19:33:20.555Z,3.87
2023-05-03T19:35:22.740Z,4.37
2023-05-03T19:37:24.993Z,4.60
2023-05-03T19:39:27.174Z,4.80
2023-05-03T19:41:29.830Z,4.60
2023-05-03T19:43:32.328Z,5.07
2023-05-03T19:45:34.540Z,5.70
2023-05-03T19:47:36.888Z,4.90
2023-05-03T19:49:39.289Z,5.17
2023-05-03T19:51:41.530Z,4.17
2023-05-03T19:53:44.263Z,5.20
2023-05-03T19:56:00.743Z,6.27
2023-05-03T19:58:02.951Z,5.40
2023-05-03T20:00:07.168Z,5.17
2023-05-03T20:02:09.524Z,5.20
2023-05-03T20:04:12.029Z,4.87
2023-05-03T20:06:14.347Z,4.87
2023-05-03T20:08:16.592Z,5.57
2023-05-03T20:10:18.883Z,4.27
2023-05-03T20:12:21.071Z,4.07
2023-05-03T20:14:23.284Z,4.90
2023-05-03T20:16:27.379Z,4.73
2023-05-03T20:18:29.536Z,4.63
2023-05-03T20:20:38.220Z,4.87
2023-05-03T20:22:40.768Z,4.67
2023-05-03T20:24:43.135Z,4.60
2023-05-03T20:26:45.505Z,5.23
2023-05-03T20:28:47.744Z,4.70
2023-05-03T20:30:50.008Z,5.13
2023-05-03T20:32:52.202Z,4.90
2023-05-03T20:34:54.403Z,5.57
2023-05-03T20:36:56.610Z,5.30
2023-05-03T20:38:58.820Z,5.50
2023-05-03T20:41:00.976Z,5.60
2023-05-03T20:43:03.292Z,5.73
2023-05-03T20:45:06.341Z,5.13
2023-05-03T20:47:09.167Z,6.20
2023-05-03T20:49:11.535Z,5.40
2023-05-03T20:51:14.911Z,5.23
2023-05-03T20:53:18.018Z,5.73
2023-05-03T20:55:20.372Z,4.63
2023-05-03T20:57:22.574Z,4.27
2023-05-03T20:59:24.773Z,5.20
2023-05-03T21:01:26.997Z,3.97
2023-05-03T21:03:29.233Z,3.83
2023-05-03T21:05:31.679Z,4.17
2023-05-03T21:07:33.893Z,4.13
2023-05-03T21:09:36.062Z,4.00
2023-05-03T21:11:38.266Z,3.90
2023-05-03T21:13:41.035Z,6.10
2023-05-03T21:15:43.367Z,5.97
2023-05-03T21:17:45.615Z,5.60
2023-05-03T21:19:48.093Z,6.47
2023-05-03T21:21:50.940Z,7.40
2023-05-03T21:23:53.295Z,6.93
2023-05-03T21:25:56.407Z,7.80
2023-05-03T21:27:58.719Z,6.60
2023-05-03T21:30:01.764Z,6.40
2023-05-03T21:32:04.566Z,5.57
2023-05-03T21:34:06.729Z,5.67
2023-05-03T21:36:09.259Z,5.77
2023-05-03T21:38:11.566Z,5.07
2023-05-03T21:40:15.275Z,6.03
2023-05-03T21:42:17.733Z,6.10
2023-05-03T21:44:19.971Z,6.13
2023-05-03T21:46:22.799Z,5.27
2023-05-03T21:48:25.103Z,5.83
2023-05-03T21:50:27.484Z,6.10
2023-05-03T21:52:29.640Z,6.03
2023-05-03T21:54:31.922Z,5.30
2023-05-03T21:56:34.098Z,5.57
2023-05-03T21:58:36.660Z,5.20
2023-05-03T22:00:40.480Z,5.80
2023-05-03T22:02:43.004Z,5.43
2023-05-03T22:04:47.091Z,5.63
2023-05-03T22:06:49.251Z,5.30
2023-05-03T22:08:51.389Z,5.37
2023-05-03T22:10:56.102Z,5.20
2023-05-03T22:12:58.292Z,5.30
2023-05-03T22:15:00.517Z,4.87
2023-05-03T22:17:02.728Z,5.20
2023-05-03T22:19:05.479Z,5.13
2023-05-03T22:21:08.209Z,5.33
2023-05-03T22:23:10.411Z,6.00
2023-05-03T22:25:23.205Z,5.10
2023-05-03T22:27:25.448Z,5.77
2023-05-03T22:29:27.669Z,4.93
2023-05-03T22:31:30.449Z,4.37
2023-05-03T22:33:32.903Z,5.40
2023-05-03T22:35:34.967Z,4.97
2023-05-03T22:37:37.173Z,4.73
2023-05-03T22:39:39.597Z,5.70
2023-05-03T22:41:41.873Z,4.97
2023-05-03T22:43:43.894Z,6.17
2023-05-03T22:45:46.053Z,5.90
2023-05-03T22:47:48.268Z,5.30
2023-05-03T22:49:50.553Z,5.03
2023-05-03T22:51:52.733Z,5.70
2023-05-03T22:53:54.824Z,5.70
2023-05-03T22:55:58.741Z,5.03
2023-05-03T22:58:01.012Z,5.60
2023-05-03T23:00:04.014Z,5.70
2023-05-03T23:02:06.786Z,5.80
2023-05-03T23:04:08.752Z,5.23
2023-05-03T23:06:10.839Z,5.60
2023-05-03T23:08:14.216Z,6.00
2023-05-03T23:10:16.267Z,5.40
2023-05-03T23:12:18.738Z,5.20
2023-05-03T23:14:20.775Z,5.60
2023-05-03T23:16:22.869Z,5.70
2023-05-03T23:18:24.937Z,6.20
2023-05-03T23:20:26.972Z,5.60
2023-05-03T23:22:29.327Z,4.80
2023-05-03T23:24:31.453Z,5.63
2023-05-03T23:26:33.723Z,5.10
2023-05-03T23:28:36.714Z,4.87
2023-05-03T23:30:43.733Z,5.60
2023-05-03T23:32:46.986Z,5.97
2023-05-03T23:34:49.507Z,4.83
2023-05-03T23:36:51.510Z,5.23
2023-05-03T23:38:53.546Z,5.17
2023-05-03T23:40:55.635Z,5.40
2023-05-03T23:42:57.716Z,5.50
2023-05-03T23:44:59.816Z,5.80
2023-05-03T23:47:01.800Z,5.73
2023-05-03T23:49:04.141Z,5.50
2023-05-03T23:51:06.325Z,5.30
2023-05-03T23:53:08.350Z,5.53
2023-05-03T23:55:10.630Z,4.83
2023-05-03T23:57:12.643Z,4.70
2023-05-03T23:59:14.614Z,4.60
